CPX323 Details

Departure: Austin-Bergstrom International Airport (KAUS)
Arrival: Miami International Airport (KMIA)
Route: ILEXY2 ZENZI IAH J86 LEV Q102 BAGGS SSCOT5


Current Weather Information
KAUS 232253Z 13019G23KT 10SM SCT043 33/23 A2989 RMK AO2 PK WND 13029/2243 SLP109 T03330233
KMIA 232253Z 06013G21KT 10SM SCT033 BKN045 28/19 A3007 RMK AO2 SLP183 T02830194